Terminal Aerodrome Forecast
Issued by NWS

Home | Current Version | Previous Version | Text Only | Print | Product List | Glossary On
Versions: 1 2 3 4 5 6 7 8 9 10 11 12
000
FTUS46 KPDT 291120
TAFDLS
TAF
KDLS 291120Z 2912/3012 32005KT P6SM SCT120 SCT250
     FM291800 32008KT P6SM SCT070 BKN200
     FM300100 32012G18KT P6SM SCT100 BKN200
     FM300600 32009KT P6SM SCT100 BKN200=

USA.gov is the U.S. government's official web portal to all federal, state and local government web resources and services.